createdAt,value
2022-12-25T00:02:46.844Z,89.00
2022-12-25T00:05:52.772Z,92.72
2022-12-25T00:08:58.685Z,81.30
2022-12-25T00:12:04.065Z,77.22
2022-12-25T00:15:09.744Z,75.78
2022-12-25T00:18:15.550Z,76.70
2022-12-25T00:21:22.495Z,74.65
2022-12-25T00:24:28.300Z,70.35
2022-12-25T00:27:34.567Z,62.15
2022-12-25T00:30:41.564Z,64.65
2022-12-25T00:33:49.019Z,68.00
2022-12-25T00:36:55.101Z,61.10
2022-12-25T00:40:00.638Z,66.80
2022-12-25T00:43:05.955Z,64.38
2022-12-25T00:46:13.448Z,53.95
2022-12-25T00:49:19.339Z,50.88
2022-12-25T00:52:25.064Z,51.38
2022-12-25T00:55:31.604Z,47.35
2022-12-25T00:58:36.931Z,53.15
2022-12-25T01:01:42.152Z,48.70
2022-12-25T01:04:47.778Z,49.15
2022-12-25T01:07:52.890Z,54.08
2022-12-25T01:11:02.618Z,54.45
2022-12-25T01:14:09.812Z,53.30
2022-12-25T01:17:15.191Z,48.15
2022-12-25T01:20:20.449Z,46.83
2022-12-25T01:23:25.986Z,51.72
2022-12-25T01:26:31.387Z,51.97
2022-12-25T01:29:38.258Z,59.70
2022-12-25T01:32:43.890Z,52.25
2022-12-25T01:35:49.015Z,61.00
2022-12-25T01:38:54.987Z,48.88
2022-12-25T01:42:00.594Z,53.80
2022-12-25T01:45:30.998Z,56.92
2022-12-25T01:48:39.925Z,54.43
2022-12-25T01:51:53.575Z,54.55
2022-12-25T01:55:04.676Z,50.50
2022-12-25T01:58:10.185Z,50.92
2022-12-25T02:01:15.788Z,45.65
2022-12-25T02:04:39.870Z,49.20
2022-12-25T02:07:48.762Z,44.33
2022-12-25T02:10:54.099Z,47.50
2022-12-25T02:13:59.397Z,42.33
2022-12-25T02:17:20.630Z,40.70
2022-12-25T02:21:03.488Z,40.45
2022-12-25T02:24:56.298Z,41.60
2022-12-25T02:28:05.291Z,46.88
2022-12-25T02:31:22.072Z,36.40
2022-12-25T02:35:00.921Z,36.65
2022-12-25T02:38:18.928Z,41.97
2022-12-25T02:41:24.359Z,41.67
2022-12-25T02:44:50.293Z,35.55
2022-12-25T02:48:14.362Z,39.72
2022-12-25T02:51:42.516Z,38.53
2022-12-25T02:55:12.073Z,44.28
2022-12-25T02:58:41.595Z,44.00
2022-12-25T03:02:05.343Z,41.15
2022-12-25T03:05:34.538Z,34.53
2022-12-25T03:08:43.421Z,40.42
2022-12-25T03:11:56.367Z,33.58
2022-12-25T03:15:20.745Z,33.90
2022-12-25T03:18:30.857Z,38.83
2022-12-25T03:21:55.036Z,35.90
2022-12-25T03:25:19.692Z,33.08
2022-12-25T03:28:25.080Z,30.00
2022-12-25T03:31:49.163Z,37.70
2022-12-25T03:35:19.103Z,31.42
2022-12-25T03:38:43.496Z,32.95
2022-12-25T03:42:17.707Z,32.08
2022-12-25T03:45:48.354Z,32.90
2022-12-25T03:49:21.541Z,34.42
2022-12-25T03:52:48.590Z,37.33
2022-12-25T03:56:13.422Z,34.15
2022-12-25T03:59:41.653Z,36.58
2022-12-25T04:03:05.836Z,37.15
2022-12-25T04:06:29.753Z,40.78
2022-12-25T04:09:53.384Z,38.28
2022-12-25T04:13:17.636Z,43.33
2022-12-25T04:16:41.747Z,45.70
2022-12-25T04:20:05.492Z,52.33
2022-12-25T04:23:29.412Z,47.25
2022-12-25T04:26:52.921Z,41.67
2022-12-25T04:30:16.556Z,55.47
2022-12-25T04:33:40.152Z,53.97
2022-12-25T04:36:45.559Z,48.85
2022-12-25T04:39:50.955Z,47.10
2022-12-25T04:42:56.751Z,52.15
2022-12-25T04:46:03.036Z,49.08
2022-12-25T04:49:08.930Z,52.60
2022-12-25T04:52:14.330Z,50.10
2022-12-25T04:55:20.198Z,51.08
2022-12-25T04:58:25.587Z,55.47
2022-12-25T05:01:30.902Z,61.60
2022-12-25T05:04:36.208Z,57.85
2022-12-25T05:07:41.873Z,55.17
2022-12-25T05:10:48.528Z,64.25
2022-12-25T05:13:54.073Z,62.03
2022-12-25T05:16:59.711Z,61.25
2022-12-25T05:20:06.770Z,61.10
2022-12-25T05:23:12.559Z,64.20
2022-12-25T05:26:21.501Z,56.13
2022-12-25T05:29:27.137Z,63.47
2022-12-25T05:32:32.662Z,63.10
2022-12-25T05:35:39.797Z,62.85
2022-12-25T05:38:45.321Z,59.95
2022-12-25T05:41:50.710Z,58.80
2022-12-25T05:44:56.598Z,63.38
2022-12-25T05:48:02.212Z,62.10
2022-12-25T05:51:10.421Z,58.40
2022-12-25T05:54:17.252Z,59.72
2022-12-25T05:57:23.102Z,56.88
2022-12-25T06:00:28.507Z,50.75
2022-12-25T06:03:34.381Z,56.28
2022-12-25T06:06:40.251Z,57.22
2022-12-25T06:09:45.945Z,49.40
2022-12-25T06:12:51.631Z,53.47
2022-12-25T06:15:57.120Z,58.50
2022-12-25T06:19:03.018Z,59.08
2022-12-25T06:22:08.539Z,49.95
2022-12-25T06:25:14.547Z,50.35
2022-12-25T06:28:20.598Z,53.10
2022-12-25T06:31:25.909Z,45.28
2022-12-25T06:34:31.070Z,43.17
2022-12-25T06:37:36.362Z,46.25
2022-12-25T06:40:41.725Z,48.30
2022-12-25T06:43:52.492Z,48.15
2022-12-25T06:46:57.687Z,46.63
2022-12-25T06:50:03.011Z,44.55
2022-12-25T06:53:07.987Z,44.25
2022-12-25T06:56:16.269Z,46.60
2022-12-25T06:59:21.971Z,50.70
2022-12-25T07:02:28.043Z,41.75
2022-12-25T07:05:33.307Z,44.00
2022-12-25T07:08:38.859Z,39.55
2022-12-25T07:11:45.593Z,43.05
2022-12-25T07:14:53.949Z,46.72
2022-12-25T07:17:59.271Z,43.30
2022-12-25T07:21:17.698Z,43.42
2022-12-25T07:24:24.097Z,45.28
2022-12-25T07:27:30.213Z,37.53
2022-12-25T07:30:35.572Z,43.97
2022-12-25T07:33:42.189Z,42.72
2022-12-25T07:36:47.897Z,42.22
2022-12-25T07:39:53.315Z,38.72
2022-12-25T07:42:58.309Z,42.60
2022-12-25T07:46:04.147Z,39.83
2022-12-25T07:49:11.286Z,38.13
2022-12-25T07:52:16.593Z,36.03
2022-12-25T07:55:21.790Z,34.63
2022-12-25T07:58:27.257Z,39.53
2022-12-25T08:01:32.589Z,32.40
2022-12-25T08:04:38.027Z,37.55
2022-12-25T08:07:43.188Z,32.15
2022-12-25T08:10:48.640Z,30.48
2022-12-25T08:13:53.811Z,34.28
2022-12-25T08:16:59.047Z,29.92
2022-12-25T08:20:04.755Z,30.20
2022-12-25T08:23:10.168Z,29.88
2022-12-25T08:26:18.971Z,31.98
2022-12-25T08:29:24.539Z,32.40
2022-12-25T08:32:33.245Z,31.83
2022-12-25T08:35:38.170Z,36.00
2022-12-25T08:38:44.062Z,29.02
2022-12-25T08:41:49.747Z,33.10
2022-12-25T08:44:55.367Z,29.48
2022-12-25T08:48:00.637Z,27.48
2022-12-25T08:51:14.825Z,29.55
2022-12-25T08:54:19.997Z,32.08
2022-12-25T08:57:24.999Z,26.83
2022-12-25T09:00:29.928Z,30.55
2022-12-25T09:03:35.950Z,27.52
2022-12-25T09:06:41.797Z,29.13
2022-12-25T09:09:46.946Z,30.50
2022-12-25T09:12:52.290Z,30.38
2022-12-25T09:15:57.245Z,34.70
2022-12-25T09:19:02.784Z,31.17
2022-12-25T09:22:08.234Z,31.15
2022-12-25T09:25:13.308Z,36.92
2022-12-25T09:28:19.106Z,31.75
2022-12-25T09:31:24.956Z,30.15
2022-12-25T09:34:30.048Z,27.25
2022-12-25T09:37:35.589Z,33.45
2022-12-25T09:40:41.651Z,30.60
2022-12-25T09:44:02.446Z,32.13
2022-12-25T09:47:20.802Z,25.73
2022-12-25T09:50:42.697Z,26.02
2022-12-25T09:54:00.512Z,31.83
2022-12-25T09:57:10.310Z,25.65
2022-12-25T10:00:19.124Z,26.15
2022-12-25T10:03:33.471Z,27.42
2022-12-25T10:06:53.684Z,25.55
2022-12-25T10:10:15.305Z,26.73
2022-12-25T10:13:42.600Z,32.42
2022-12-25T10:17:00.119Z,29.60
2022-12-25T10:20:59.902Z,35.85
2022-12-25T10:24:25.871Z,30.50
2022-12-25T10:27:39.355Z,30.90
2022-12-25T10:30:45.567Z,29.33
2022-12-25T10:33:53.167Z,28.15
2022-12-25T10:36:59.049Z,32.65
2022-12-25T10:40:28.156Z,29.88
2022-12-25T10:44:42.731Z,33.78
2022-12-25T10:47:54.968Z,28.13
2022-12-25T10:51:04.976Z,31.95
2022-12-25T10:54:29.342Z,30.92
2022-12-25T10:57:45.727Z,25.27
2022-12-25T11:01:04.070Z,31.90
2022-12-25T11:04:21.936Z,32.78
2022-12-25T11:07:27.408Z,28.20
2022-12-25T11:10:44.533Z,32.15
2022-12-25T11:13:54.301Z,35.50
2022-12-25T11:17:09.835Z,28.70
2022-12-25T11:20:19.971Z,28.80
2022-12-25T11:23:27.805Z,30.27
2022-12-25T11:26:48.050Z,36.20
2022-12-25T11:29:59.259Z,30.52
2022-12-25T11:33:11.670Z,32.03
2022-12-25T11:36:20.621Z,30.95
2022-12-25T11:39:35.698Z,32.20
2022-12-25T11:42:47.907Z,29.00
2022-12-25T11:45:59.881Z,28.92
2022-12-25T11:49:14.546Z,27.13
2022-12-25T11:52:22.141Z,26.85
2022-12-25T11:55:43.089Z,32.90
2022-12-25T11:58:53.186Z,30.10
2022-12-25T12:02:12.173Z,32.50
2022-12-25T12:05:26.415Z,30.20
2022-12-25T12:08:33.285Z,25.02
2022-12-25T12:11:48.079Z,28.60
2022-12-25T12:15:13.239Z,29.58
2022-12-25T12:18:27.873Z,29.42
2022-12-25T12:21:33.122Z,32.50
2022-12-25T12:24:45.008Z,34.55
2022-12-25T12:28:04.925Z,29.70
2022-12-25T12:31:11.144Z,28.17
2022-12-25T12:34:31.611Z,26.23
2022-12-25T12:37:40.801Z,27.75
2022-12-25T12:40:56.573Z,28.77
2022-12-25T12:44:05.199Z,24.92
2022-12-25T12:47:29.830Z,27.08
2022-12-25T12:50:41.253Z,25.92
2022-12-25T12:53:46.854Z,24.70
2022-12-25T12:57:07.721Z,24.33
2022-12-25T13:00:18.884Z,23.67
2022-12-25T13:03:33.162Z,26.87
2022-12-25T13:06:47.809Z,24.90
2022-12-25T13:10:23.191Z,25.00
2022-12-25T13:13:45.787Z,21.55
2022-12-25T13:16:54.524Z,21.77
2022-12-25T13:20:01.570Z,25.60
2022-12-25T13:23:28.103Z,24.65
2022-12-25T13:26:33.846Z,24.30
2022-12-25T13:29:39.466Z,22.50
2022-12-25T13:32:46.258Z,23.20
2022-12-25T13:35:52.003Z,24.42
2022-12-25T13:38:59.387Z,26.35
2022-12-25T13:42:09.851Z,28.60
2022-12-25T13:45:26.210Z,20.90
2022-12-25T13:48:31.733Z,23.75
2022-12-25T13:51:36.952Z,26.67
2022-12-25T13:54:55.858Z,29.13
2022-12-25T13:58:06.391Z,23.75
2022-12-25T14:01:17.169Z,26.40
2022-12-25T14:04:24.819Z,28.42
2022-12-25T14:07:30.589Z,20.73
2022-12-25T14:10:39.854Z,23.08
2022-12-25T14:13:47.649Z,27.88
2022-12-25T14:16:56.667Z,25.95
2022-12-25T14:20:07.858Z,23.15
2022-12-25T14:23:16.489Z,23.08
2022-12-25T14:26:28.561Z,26.60
2022-12-25T14:29:45.608Z,24.38
2022-12-25T14:32:54.379Z,24.88
2022-12-25T14:35:59.608Z,24.13
2022-12-25T14:39:07.590Z,22.70
2022-12-25T14:42:24.679Z,23.77
2022-12-25T14:45:36.353Z,27.33
2022-12-25T14:48:41.496Z,26.05
2022-12-25T14:51:46.873Z,23.17
2022-12-25T14:55:07.462Z,32.40
2022-12-25T14:58:22.027Z,27.33
2022-12-25T15:01:41.932Z,31.08
2022-12-25T15:04:47.473Z,25.20
2022-12-25T15:08:23.256Z,26.48
2022-12-25T15:11:29.275Z,24.48
2022-12-25T15:14:38.621Z,29.20
2022-12-25T15:17:43.774Z,30.23
2022-12-25T15:20:52.804Z,32.33
2022-12-25T15:24:00.174Z,28.75
2022-12-25T15:27:12.849Z,29.08
2022-12-25T15:30:18.963Z,23.13
2022-12-25T15:33:24.102Z,27.95
2022-12-25T15:36:29.313Z,25.40
2022-12-25T15:39:35.046Z,23.30
2022-12-25T15:42:41.558Z,28.23
2022-12-25T15:45:46.952Z,29.70
2022-12-25T15:48:51.851Z,24.83
2022-12-25T15:51:57.016Z,26.88
2022-12-25T15:55:02.052Z,32.70
2022-12-25T15:58:11.329Z,28.02
2022-12-25T16:01:19.212Z,24.20
2022-12-25T16:04:26.793Z,27.63
2022-12-25T16:07:33.783Z,24.08
2022-12-25T16:10:40.500Z,25.23
2022-12-25T16:13:45.982Z,27.05
2022-12-25T16:16:51.398Z,27.67
2022-12-25T16:19:56.816Z,22.58
2022-12-25T16:23:01.743Z,26.48
2022-12-25T16:26:06.952Z,28.45
2022-12-25T16:29:12.111Z,29.98
2022-12-25T16:32:18.598Z,27.80
2022-12-25T16:35:23.896Z,27.83
2022-12-25T16:38:29.286Z,24.98
2022-12-25T16:41:34.669Z,33.13
2022-12-25T16:44:39.825Z,30.38
2022-12-25T16:47:44.884Z,32.00
2022-12-25T16:50:50.048Z,30.38
2022-12-25T16:53:55.901Z,28.83
2022-12-25T16:57:01.379Z,30.15
2022-12-25T17:00:07.400Z,26.92
2022-12-25T17:03:13.033Z,25.33
2022-12-25T17:06:28.616Z,28.08
2022-12-25T17:09:37.519Z,24.00
2022-12-25T17:12:45.931Z,27.65
2022-12-25T17:15:51.438Z,25.25
2022-12-25T17:19:02.666Z,22.27
2022-12-25T17:22:08.286Z,28.20
2022-12-25T17:25:13.667Z,24.17
2022-12-25T17:28:18.740Z,25.40
2022-12-25T17:31:24.750Z,27.95
2022-12-25T17:34:30.192Z,26.00
2022-12-25T17:37:37.626Z,27.58
2022-12-25T17:40:44.439Z,27.33
2022-12-25T17:43:49.883Z,27.40
2022-12-25T17:46:55.019Z,35.20
2022-12-25T17:50:00.038Z,26.65
2022-12-25T17:53:05.509Z,36.35
2022-12-25T17:56:11.220Z,30.27
2022-12-25T17:59:18.762Z,35.47
2022-12-25T18:02:24.625Z,33.72
2022-12-25T18:05:30.341Z,32.00
2022-12-25T18:08:39.508Z,38.60
2022-12-25T18:11:45.581Z,35.92
2022-12-25T18:14:50.818Z,38.80
2022-12-25T18:17:56.069Z,35.40
2022-12-25T18:21:02.390Z,41.65
2022-12-25T18:24:08.668Z,41.90
2022-12-25T18:27:14.080Z,43.03
2022-12-25T18:30:20.101Z,45.88
2022-12-25T18:33:25.658Z,47.17
2022-12-25T18:36:31.098Z,47.92
2022-12-25T18:39:36.598Z,48.58
2022-12-25T18:42:43.642Z,51.03
2022-12-25T18:45:57.826Z,47.08
2022-12-25T18:49:03.467Z,48.22
2022-12-25T18:52:48.459Z,51.17
2022-12-25T18:55:33.938Z,55.85
2022-12-25T18:58:39.626Z,48.97
2022-12-25T19:01:44.931Z,46.63
2022-12-25T19:04:50.518Z,47.03
2022-12-25T19:07:55.949Z,49.40
2022-12-25T19:11:01.343Z,49.10
2022-12-25T19:14:06.822Z,51.95
2022-12-25T19:17:12.383Z,45.38
2022-12-25T19:20:18.022Z,52.80
2022-12-25T19:23:23.261Z,45.58
2022-12-25T19:26:28.585Z,51.05
2022-12-25T19:29:34.560Z,52.63
2022-12-25T19:32:39.833Z,54.42
2022-12-25T19:35:45.082Z,48.88
2022-12-25T19:38:50.990Z,57.83
2022-12-25T19:41:56.011Z,51.80
2022-12-25T19:45:01.187Z,59.22
2022-12-25T19:48:06.592Z,59.92
2022-12-25T19:51:21.011Z,50.75
2022-12-25T19:54:26.295Z,49.45
2022-12-25T19:57:31.369Z,58.58
2022-12-25T20:00:36.556Z,58.78
2022-12-25T20:03:46.462Z,70.03
2022-12-25T20:06:52.190Z,63.20
2022-12-25T20:09:57.559Z,59.70
2022-12-25T20:13:02.881Z,57.30
2022-12-25T20:16:10.570Z,59.88
2022-12-25T20:19:15.973Z,60.58
2022-12-25T20:22:21.237Z,58.17
2022-12-25T20:25:26.426Z,58.03
2022-12-25T20:28:34.060Z,58.45
2022-12-25T20:31:39.400Z,66.32
2022-12-25T20:34:44.854Z,64.32
2022-12-25T20:37:50.341Z,63.17
2022-12-25T20:44:31.110Z,62.92
2022-12-25T20:47:36.441Z,67.35
2022-12-25T20:50:41.537Z,64.05
2022-12-25T20:53:48.050Z,66.18
2022-12-25T20:56:53.064Z,63.88
2022-12-25T20:59:58.199Z,66.93
2022-12-25T21:03:03.688Z,75.78
2022-12-25T21:06:11.682Z,67.32
2022-12-25T21:09:16.848Z,62.40
2022-12-25T21:12:22.077Z,71.10
2022-12-25T21:15:27.275Z,77.55
2022-12-25T21:18:32.618Z,73.03
2022-12-25T21:21:42.955Z,71.53
2022-12-25T21:24:52.189Z,77.07
2022-12-25T21:27:57.379Z,79.75
2022-12-25T21:31:04.286Z,79.20
2022-12-25T21:34:09.562Z,89.53
2022-12-25T21:37:14.682Z,83.07
2022-12-25T21:40:20.008Z,75.50
2022-12-25T21:43:25.424Z,81.30
2022-12-25T21:46:31.003Z,74.20
2022-12-25T21:49:54.795Z,87.25
2022-12-25T21:53:00.020Z,74.07
2022-12-25T21:56:05.983Z,79.50
2022-12-25T21:59:17.914Z,76.07
2022-12-25T22:02:23.232Z,91.03
2022-12-25T22:05:47.369Z,84.55
2022-12-25T22:08:52.752Z,84.43
2022-12-25T22:12:16.834Z,94.15
2022-12-25T22:15:21.943Z,90.32
2022-12-25T22:18:45.542Z,95.07
2022-12-25T22:21:51.725Z,83.13
2022-12-25T22:24:59.773Z,95.60
2022-12-25T22:28:05.002Z,91.18
2022-12-25T22:31:10.337Z,93.65
2022-12-25T22:34:16.381Z,88.95
2022-12-25T22:37:23.361Z,98.72
2022-12-25T22:40:28.710Z,86.20
2022-12-25T22:44:14.501Z,93.82
2022-12-25T22:47:00.042Z,90.32
2022-12-25T22:50:06.304Z,94.57
2022-12-25T22:53:11.560Z,99.32
2022-12-25T22:56:17.020Z,92.97
2022-12-25T22:59:23.337Z,96.13
2022-12-25T23:02:30.451Z,93.82
2022-12-25T23:05:36.552Z,97.63
2022-12-25T23:08:41.778Z,90.88
2022-12-25T23:11:46.852Z,93.47
2022-12-25T23:14:52.075Z,93.63
2022-12-25T23:18:16.362Z,88.85
2022-12-25T23:21:39.630Z,97.07
2022-12-25T23:25:03.536Z,89.35
2022-12-25T23:28:09.131Z,96.30
2022-12-25T23:31:17.880Z,93.40
2022-12-25T23:34:23.794Z,94.28
2022-12-25T23:37:29.484Z,91.03
2022-12-25T23:40:36.570Z,92.68
2022-12-25T23:43:41.980Z,104.63
2022-12-25T23:46:52.728Z,97.32
2022-12-25T23:49:59.331Z,85.65
2022-12-25T23:53:04.873Z,94.13
2022-12-25T23:56:10.706Z,103.32
2022-12-25T23:59:16.157Z,92.90
